sensor_id;sensor_type;location;lat;lon;timestamp;P1;durP1;ratioP1;P2;durP2;ratioP2
64063;SDS011;50314;50.618;10.642;2023-04-15T00:01:58;2.92;;;2.60;;
64063;SDS011;50314;50.618;10.642;2023-04-15T00:04:24;3.05;;;2.30;;
64063;SDS011;50314;50.618;10.642;2023-04-15T00:06:50;2.70;;;2.40;;
64063;SDS011;50314;50.618;10.642;2023-04-15T00:09:17;3.97;;;2.65;;
64063;SDS011;50314;50.618;10.642;2023-04-15T00:11:43;2.75;;;2.50;;
64063;SDS011;50314;50.618;10.642;2023-04-15T00:14:09;2.78;;;2.17;;
64063;SDS011;50314;50.618;10.642;2023-04-15T00:16:35;3.38;;;2.65;;
64063;SDS011;50314;50.618;10.642;2023-04-15T00:19:01;2.70;;;2.35;;
64063;SDS011;50314;50.618;10.642;2023-04-15T00:21:26;3.00;;;2.78;;
64063;SDS011;50314;50.618;10.642;2023-04-15T00:23:53;2.67;;;2.10;;
64063;SDS011;50314;50.618;10.642;2023-04-15T00:26:18;2.92;;;2.25;;
64063;SDS011;50314;50.618;10.642;2023-04-15T00:28:45;3.05;;;2.75;;
64063;SDS011;50314;50.618;10.642;2023-04-15T00:31:10;5.28;;;2.60;;
64063;SDS011;50314;50.618;10.642;2023-04-15T00:33:36;2.63;;;2.35;;
64063;SDS011;50314;50.618;10.642;2023-04-15T00:36:02;2.58;;;2.38;;
64063;SDS011;50314;50.618;10.642;2023-04-15T00:38:28;2.40;;;2.13;;
64063;SDS011;50314;50.618;10.642;2023-04-15T00:40:54;2.88;;;2.22;;
64063;SDS011;50314;50.618;10.642;2023-04-15T00:43:20;2.35;;;2.15;;
64063;SDS011;50314;50.618;10.642;2023-04-15T00:45:46;2.88;;;2.53;;
64063;SDS011;50314;50.618;10.642;2023-04-15T00:48:11;2.92;;;2.63;;
64063;SDS011;50314;50.618;10.642;2023-04-15T00:50:37;2.95;;;2.40;;
64063;SDS011;50314;50.618;10.642;2023-04-15T00:53:03;2.30;;;2.00;;
64063;SDS011;50314;50.618;10.642;2023-04-15T00:55:29;2.70;;;2.50;;
64063;SDS011;50314;50.618;10.642;2023-04-15T00:57:55;2.67;;;2.45;;
64063;SDS011;50314;50.618;10.642;2023-04-15T01:00:21;2.63;;;2.17;;
64063;SDS011;50314;50.618;10.642;2023-04-15T01:02:49;2.78;;;2.58;;
64063;SDS011;50314;50.618;10.642;2023-04-15T01:07:42;3.00;;;2.75;;
64063;SDS011;50314;50.618;10.642;2023-04-15T01:10:08;2.25;;;2.03;;
64063;SDS011;50314;50.618;10.642;2023-04-15T01:12:33;2.75;;;2.47;;
64063;SDS011;50314;50.618;10.642;2023-04-15T01:14:59;2.90;;;2.38;;
64063;SDS011;50314;50.618;10.642;2023-04-15T01:17:26;2.67;;;2.45;;
64063;SDS011;50314;50.618;10.642;2023-04-15T01:19:52;2.33;;;2.00;;
64063;SDS011;50314;50.618;10.642;2023-04-15T01:22:20;2.40;;;2.13;;
64063;SDS011;50314;50.618;10.642;2023-04-15T01:24:54;3.22;;;2.92;;
64063;SDS011;50314;50.618;10.642;2023-04-15T01:27:32;2.45;;;2.22;;
64063;SDS011;50314;50.618;10.642;2023-04-15T01:29:59;2.30;;;2.10;;
64063;SDS011;50314;50.618;10.642;2023-04-15T01:32:25;2.50;;;2.13;;
64063;SDS011;50314;50.618;10.642;2023-04-15T01:34:51;2.92;;;2.42;;
64063;SDS011;50314;50.618;10.642;2023-04-15T01:37:16;2.97;;;2.22;;
64063;SDS011;50314;50.618;10.642;2023-04-15T01:39:42;2.60;;;2.22;;
64063;SDS011;50314;50.618;10.642;2023-04-15T01:42:08;3.10;;;2.35;;
64063;SDS011;50314;50.618;10.642;2023-04-15T01:44:34;2.97;;;2.67;;
64063;SDS011;50314;50.618;10.642;2023-04-15T01:46:59;2.38;;;1.73;;
64063;SDS011;50314;50.618;10.642;2023-04-15T01:49:25;2.70;;;2.22;;
64063;SDS011;50314;50.618;10.642;2023-04-15T01:51:50;3.25;;;2.45;;
64063;SDS011;50314;50.618;10.642;2023-04-15T01:54:15;2.78;;;2.30;;
64063;SDS011;50314;50.618;10.642;2023-04-15T01:56:41;2.78;;;2.58;;
64063;SDS011;50314;50.618;10.642;2023-04-15T01:59:06;2.90;;;2.10;;
64063;SDS011;50314;50.618;10.642;2023-04-15T02:01:32;2.78;;;2.58;;
64063;SDS011;50314;50.618;10.642;2023-04-15T02:03:58;2.05;;;1.77;;
64063;SDS011;50314;50.618;10.642;2023-04-15T02:06:23;2.55;;;2.13;;
64063;SDS011;50314;50.618;10.642;2023-04-15T02:08:49;2.90;;;2.25;;
64063;SDS011;50314;50.618;10.642;2023-04-15T02:11:14;2.25;;;1.92;;
64063;SDS011;50314;50.618;10.642;2023-04-15T02:13:40;2.78;;;2.33;;
64063;SDS011;50314;50.618;10.642;2023-04-15T02:16:14;2.25;;;2.05;;
64063;SDS011;50314;50.618;10.642;2023-04-15T02:18:46;2.10;;;1.90;;
64063;SDS011;50314;50.618;10.642;2023-04-15T02:21:12;2.30;;;2.00;;
64063;SDS011;50314;50.618;10.642;2023-04-15T02:23:37;2.40;;;2.20;;
64063;SDS011;50314;50.618;10.642;2023-04-15T02:26:03;2.28;;;1.98;;
64063;SDS011;50314;50.618;10.642;2023-04-15T02:28:28;2.42;;;1.90;;
64063;SDS011;50314;50.618;10.642;2023-04-15T02:30:54;2.22;;;1.90;;
64063;SDS011;50314;50.618;10.642;2023-04-15T02:33:21;1.75;;;1.65;;
64063;SDS011;50314;50.618;10.642;2023-04-15T02:35:47;2.60;;;1.92;;
64063;SDS011;50314;50.618;10.642;2023-04-15T02:38:12;1.92;;;1.77;;
64063;SDS011;50314;50.618;10.642;2023-04-15T02:40:40;2.63;;;2.13;;
64063;SDS011;50314;50.618;10.642;2023-04-15T02:43:06;2.22;;;1.83;;
64063;SDS011;50314;50.618;10.642;2023-04-15T02:45:32;1.77;;;1.60;;
64063;SDS011;50314;50.618;10.642;2023-04-15T02:47:57;2.13;;;1.90;;
64063;SDS011;50314;50.618;10.642;2023-04-15T02:50:23;1.92;;;1.70;;
64063;SDS011;50314;50.618;10.642;2023-04-15T02:52:49;2.92;;;2.03;;
64063;SDS011;50314;50.618;10.642;2023-04-15T02:55:16;2.55;;;1.55;;
64063;SDS011;50314;50.618;10.642;2023-04-15T02:57:42;2.60;;;2.17;;
64063;SDS011;50314;50.618;10.642;2023-04-15T03:00:08;2.05;;;1.85;;
64063;SDS011;50314;50.618;10.642;2023-04-15T03:02:35;2.10;;;1.83;;
64063;SDS011;50314;50.618;10.642;2023-04-15T03:05:01;2.15;;;1.75;;
64063;SDS011;50314;50.618;10.642;2023-04-15T03:07:28;1.65;;;1.55;;
64063;SDS011;50314;50.618;10.642;2023-04-15T03:09:53;2.40;;;1.70;;
64063;SDS011;50314;50.618;10.642;2023-04-15T03:12:19;2.35;;;1.75;;
64063;SDS011;50314;50.618;10.642;2023-04-15T03:14:45;2.35;;;1.92;;
64063;SDS011;50314;50.618;10.642;2023-04-15T03:17:10;1.95;;;1.55;;
64063;SDS011;50314;50.618;10.642;2023-04-15T03:19:36;2.08;;;1.58;;
64063;SDS011;50314;50.618;10.642;2023-04-15T03:22:01;2.35;;;1.92;;
64063;SDS011;50314;50.618;10.642;2023-04-15T03:24:27;2.38;;;1.70;;
64063;SDS011;50314;50.618;10.642;2023-04-15T03:26:53;2.00;;;1.45;;
64063;SDS011;50314;50.618;10.642;2023-04-15T03:29:19;2.08;;;1.60;;
64063;SDS011;50314;50.618;10.642;2023-04-15T03:31:44;1.50;;;1.40;;
64063;SDS011;50314;50.618;10.642;2023-04-15T03:34:10;2.25;;;1.83;;
64063;SDS011;50314;50.618;10.642;2023-04-15T03:36:35;1.90;;;1.60;;
64063;SDS011;50314;50.618;10.642;2023-04-15T03:39:01;2.10;;;1.80;;
64063;SDS011;50314;50.618;10.642;2023-04-15T03:41:27;1.90;;;1.60;;
64063;SDS011;50314;50.618;10.642;2023-04-15T03:43:53;1.23;;;1.13;;
64063;SDS011;50314;50.618;10.642;2023-04-15T03:46:18;2.50;;;1.83;;
64063;SDS011;50314;50.618;10.642;2023-04-15T03:48:44;2.05;;;1.83;;
64063;SDS011;50314;50.618;10.642;2023-04-15T03:51:09;2.05;;;1.50;;
64063;SDS011;50314;50.618;10.642;2023-04-15T03:53:35;1.67;;;1.58;;
64063;SDS011;50314;50.618;10.642;2023-04-15T03:56:01;1.73;;;1.42;;
64063;SDS011;50314;50.618;10.642;2023-04-15T03:58:26;1.92;;;1.70;;
64063;SDS011;50314;50.618;10.642;2023-04-15T04:00:52;1.67;;;1.30;;
64063;SDS011;50314;50.618;10.642;2023-04-15T04:03:18;1.80;;;1.70;;
64063;SDS011;50314;50.618;10.642;2023-04-15T04:05:44;1.80;;;1.50;;
64063;SDS011;50314;50.618;10.642;2023-04-15T04:08:09;1.98;;;1.88;;
64063;SDS011;50314;50.618;10.642;2023-04-15T04:10:37;1.60;;;1.50;;
64063;SDS011;50314;50.618;10.642;2023-04-15T04:13:03;1.73;;;1.55;;
64063;SDS011;50314;50.618;10.642;2023-04-15T04:15:29;1.85;;;1.70;;
64063;SDS011;50314;50.618;10.642;2023-04-15T04:17:55;1.92;;;1.80;;
64063;SDS011;50314;50.618;10.642;2023-04-15T04:20:20;2.70;;;1.80;;
64063;SDS011;50314;50.618;10.642;2023-04-15T04:22:46;1.75;;;1.65;;
64063;SDS011;50314;50.618;10.642;2023-04-15T04:25:11;1.52;;;1.42;;
64063;SDS011;50314;50.618;10.642;2023-04-15T04:27:37;1.60;;;1.50;;
64063;SDS011;50314;50.618;10.642;2023-04-15T04:30:02;1.58;;;1.48;;
64063;SDS011;50314;50.618;10.642;2023-04-15T04:32:29;1.65;;;1.55;;
64063;SDS011;50314;50.618;10.642;2023-04-15T04:34:54;1.52;;;1.25;;
64063;SDS011;50314;50.618;10.642;2023-04-15T04:37:20;1.85;;;1.73;;
64063;SDS011;50314;50.618;10.642;2023-04-15T04:39:47;1.65;;;1.48;;
64063;SDS011;50314;50.618;10.642;2023-04-15T04:42:12;2.03;;;1.80;;
64063;SDS011;50314;50.618;10.642;2023-04-15T04:44:38;1.75;;;1.63;;
64063;SDS011;50314;50.618;10.642;2023-04-15T04:47:03;2.25;;;1.60;;
64063;SDS011;50314;50.618;10.642;2023-04-15T04:49:30;1.50;;;1.40;;
64063;SDS011;50314;50.618;10.642;2023-04-15T04:51:56;1.83;;;1.67;;
64063;SDS011;50314;50.618;10.642;2023-04-15T04:54:21;1.60;;;1.50;;
64063;SDS011;50314;50.618;10.642;2023-04-15T04:56:47;3.08;;;1.70;;
64063;SDS011;50314;50.618;10.642;2023-04-15T04:59:13;1.55;;;1.45;;
64063;SDS011;50314;50.618;10.642;2023-04-15T05:01:38;1.80;;;1.63;;
64063;SDS011;50314;50.618;10.642;2023-04-15T05:04:05;2.17;;;1.60;;
64063;SDS011;50314;50.618;10.642;2023-04-15T05:06:31;1.63;;;1.52;;
64063;SDS011;50314;50.618;10.642;2023-04-15T05:08:57;1.88;;;1.55;;
64063;SDS011;50314;50.618;10.642;2023-04-15T05:11:22;1.50;;;1.40;;
64063;SDS011;50314;50.618;10.642;2023-04-15T05:13:48;1.42;;;1.33;;
64063;SDS011;50314;50.618;10.642;2023-04-15T05:16:13;1.90;;;1.50;;
64063;SDS011;50314;50.618;10.642;2023-04-15T05:18:39;1.88;;;1.77;;
64063;SDS011;50314;50.618;10.642;2023-04-15T05:21:04;1.40;;;1.30;;
64063;SDS011;50314;50.618;10.642;2023-04-15T05:23:31;1.75;;;1.50;;
64063;SDS011;50314;50.618;10.642;2023-04-15T05:25:56;1.75;;;1.65;;
64063;SDS011;50314;50.618;10.642;2023-04-15T05:28:22;1.63;;;1.52;;
64063;SDS011;50314;50.618;10.642;2023-04-15T05:30:47;1.50;;;1.40;;
64063;SDS011;50314;50.618;10.642;2023-04-15T05:33:13;1.63;;;1.52;;
64063;SDS011;50314;50.618;10.642;2023-04-15T05:35:38;1.50;;;1.40;;
64063;SDS011;50314;50.618;10.642;2023-04-15T05:38:03;2.00;;;1.90;;
64063;SDS011;50314;50.618;10.642;2023-04-15T05:40:29;2.33;;;1.50;;
64063;SDS011;50314;50.618;10.642;2023-04-15T05:42:55;2.20;;;1.48;;
64063;SDS011;50314;50.618;10.642;2023-04-15T05:45:21;1.98;;;1.77;;
64063;SDS011;50314;50.618;10.642;2023-04-15T05:47:46;1.55;;;1.45;;
64063;SDS011;50314;50.618;10.642;2023-04-15T05:50:14;1.70;;;1.60;;
64063;SDS011;50314;50.618;10.642;2023-04-15T05:52:39;1.85;;;1.73;;
64063;SDS011;50314;50.618;10.642;2023-04-15T05:55:05;2.47;;;1.75;;
64063;SDS011;50314;50.618;10.642;2023-04-15T05:57:30;3.03;;;1.63;;
64063;SDS011;50314;50.618;10.642;2023-04-15T05:59:56;2.58;;;1.65;;
64063;SDS011;50314;50.618;10.642;2023-04-15T06:02:23;4.10;;;1.40;;
64063;SDS011;50314;50.618;10.642;2023-04-15T06:04:48;3.33;;;2.00;;
64063;SDS011;50314;50.618;10.642;2023-04-15T06:07:14;3.00;;;1.40;;
64063;SDS011;50314;50.618;10.642;2023-04-15T06:09:39;2.53;;;1.67;;
64063;SDS011;50314;50.618;10.642;2023-04-15T06:12:05;1.40;;;1.20;;
64063;SDS011;50314;50.618;10.642;2023-04-15T06:14:35;1.95;;;1.80;;
64063;SDS011;50314;50.618;10.642;2023-04-15T06:17:01;1.20;;;1.10;;
64063;SDS011;50314;50.618;10.642;2023-04-15T06:19:27;1.45;;;1.30;;
64063;SDS011;50314;50.618;10.642;2023-04-15T06:21:53;1.70;;;1.35;;
64063;SDS011;50314;50.618;10.642;2023-04-15T06:24:19;1.35;;;1.25;;
64063;SDS011;50314;50.618;10.642;2023-04-15T06:26:44;1.40;;;1.30;;
64063;SDS011;50314;50.618;10.642;2023-04-15T06:29:09;2.65;;;1.58;;
64063;SDS011;50314;50.618;10.642;2023-04-15T06:31:35;2.55;;;1.40;;
64063;SDS011;50314;50.618;10.642;2023-04-15T06:34:01;2.30;;;1.23;;
64063;SDS011;50314;50.618;10.642;2023-04-15T06:36:26;1.60;;;1.05;;
64063;SDS011;50314;50.618;10.642;2023-04-15T06:38:52;2.45;;;1.55;;
64063;SDS011;50314;50.618;10.642;2023-04-15T06:41:17;2.17;;;1.50;;
64063;SDS011;50314;50.618;10.642;2023-04-15T06:43:43;2.17;;;1.90;;
64063;SDS011;50314;50.618;10.642;2023-04-15T06:46:08;3.88;;;2.63;;
64063;SDS011;50314;50.618;10.642;2023-04-15T06:48:34;3.25;;;2.35;;
64063;SDS011;50314;50.618;10.642;2023-04-15T06:50:59;4.50;;;2.45;;
64063;SDS011;50314;50.618;10.642;2023-04-15T06:53:25;2.42;;;2.20;;
64063;SDS011;50314;50.618;10.642;2023-04-15T06:55:52;2.42;;;1.90;;
64063;SDS011;50314;50.618;10.642;2023-04-15T06:58:17;2.17;;;1.77;;
64063;SDS011;50314;50.618;10.642;2023-04-15T07:00:43;2.33;;;2.05;;
64063;SDS011;50314;50.618;10.642;2023-04-15T07:03:08;2.10;;;1.80;;
64063;SDS011;50314;50.618;10.642;2023-04-15T07:05:35;2.05;;;1.85;;
64063;SDS011;50314;50.618;10.642;2023-04-15T07:08:00;2.45;;;2.08;;
64063;SDS011;50314;50.618;10.642;2023-04-15T07:10:26;2.22;;;1.65;;
64063;SDS011;50314;50.618;10.642;2023-04-15T07:12:51;1.95;;;1.58;;
64063;SDS011;50314;50.618;10.642;2023-04-15T07:15:16;2.50;;;1.77;;
64063;SDS011;50314;50.618;10.642;2023-04-15T07:17:42;2.83;;;1.60;;
64063;SDS011;50314;50.618;10.642;2023-04-15T07:20:08;2.35;;;1.95;;
64063;SDS011;50314;50.618;10.642;2023-04-15T07:22:33;2.35;;;1.60;;
64063;SDS011;50314;50.618;10.642;2023-04-15T07:24:59;2.10;;;1.50;;
64063;SDS011;50314;50.618;10.642;2023-04-15T07:27:25;2.00;;;1.70;;
64063;SDS011;50314;50.618;10.642;2023-04-15T07:29:51;2.17;;;1.67;;
64063;SDS011;50314;50.618;10.642;2023-04-15T07:32:17;2.22;;;1.63;;
64063;SDS011;50314;50.618;10.642;2023-04-15T07:34:43;2.60;;;1.38;;
64063;SDS011;50314;50.618;10.642;2023-04-15T07:37:08;2.42;;;1.50;;
64063;SDS011;50314;50.618;10.642;2023-04-15T07:39:34;1.50;;;1.40;;
64063;SDS011;50314;50.618;10.642;2023-04-15T07:42:00;1.70;;;1.60;;
64063;SDS011;50314;50.618;10.642;2023-04-15T07:44:26;2.65;;;1.45;;
64063;SDS011;50314;50.618;10.642;2023-04-15T07:46:51;1.67;;;1.55;;
64063;SDS011;50314;50.618;10.642;2023-04-15T07:49:17;2.03;;;1.63;;
64063;SDS011;50314;50.618;10.642;2023-04-15T07:51:43;1.67;;;1.58;;
64063;SDS011;50314;50.618;10.642;2023-04-15T07:54:09;1.67;;;1.58;;
64063;SDS011;50314;50.618;10.642;2023-04-15T07:56:35;1.70;;;1.60;;
64063;SDS011;50314;50.618;10.642;2023-04-15T07:59:00;1.80;;;1.70;;
64063;SDS011;50314;50.618;10.642;2023-04-15T08:01:28;1.83;;;1.73;;
64063;SDS011;50314;50.618;10.642;2023-04-15T08:03:54;1.45;;;1.35;;
64063;SDS011;50314;50.618;10.642;2023-04-15T08:06:21;1.40;;;1.30;;
64063;SDS011;50314;50.618;10.642;2023-04-15T08:08:46;1.80;;;1.50;;
64063;SDS011;50314;50.618;10.642;2023-04-15T08:11:12;1.60;;;1.50;;
64063;SDS011;50314;50.618;10.642;2023-04-15T08:13:37;1.50;;;1.40;;
64063;SDS011;50314;50.618;10.642;2023-04-15T08:16:13;1.55;;;1.25;;
64063;SDS011;50314;50.618;10.642;2023-04-15T08:18:45;2.28;;;1.15;;
64063;SDS011;50314;50.618;10.642;2023-04-15T08:21:12;1.20;;;1.10;;
64063;SDS011;50314;50.618;10.642;2023-04-15T08:23:38;1.30;;;1.10;;
64063;SDS011;50314;50.618;10.642;2023-04-15T08:26:03;1.85;;;1.45;;
64063;SDS011;50314;50.618;10.642;2023-04-15T08:28:29;2.00;;;1.90;;
64063;SDS011;50314;50.618;10.642;2023-04-15T08:30:55;1.80;;;1.70;;
64063;SDS011;50314;50.618;10.642;2023-04-15T08:33:21;2.83;;;1.73;;
64063;SDS011;50314;50.618;10.642;2023-04-15T08:35:47;3.08;;;1.92;;
64063;SDS011;50314;50.618;10.642;2023-04-15T08:38:12;2.20;;;2.00;;
64063;SDS011;50314;50.618;10.642;2023-04-15T08:40:41;2.45;;;2.25;;
64063;SDS011;50314;50.618;10.642;2023-04-15T08:43:14;2.78;;;2.17;;
64063;SDS011;50314;50.618;10.642;2023-04-15T08:45:52;2.22;;;1.85;;
64063;SDS011;50314;50.618;10.642;2023-04-15T08:48:18;2.22;;;2.00;;
64063;SDS011;50314;50.618;10.642;2023-04-15T08:50:45;2.50;;;2.30;;
64063;SDS011;50314;50.618;10.642;2023-04-15T08:53:12;2.25;;;2.13;;
64063;SDS011;50314;50.618;10.642;2023-04-15T08:55:41;1.75;;;1.65;;
64063;SDS011;50314;50.618;10.642;2023-04-15T08:58:12;2.88;;;2.45;;
64063;SDS011;50314;50.618;10.642;2023-04-15T09:00:39;2.53;;;2.33;;
64063;SDS011;50314;50.618;10.642;2023-04-15T09:03:06;1.80;;;1.33;;
64063;SDS011;50314;50.618;10.642;2023-04-15T09:05:33;1.92;;;1.83;;
64063;SDS011;50314;50.618;10.642;2023-04-15T09:08:00;2.30;;;2.10;;
64063;SDS011;50314;50.618;10.642;2023-04-15T09:10:26;2.78;;;2.33;;
64063;SDS011;50314;50.618;10.642;2023-04-15T09:12:53;8.60;;;2.40;;
64063;SDS011;50314;50.618;10.642;2023-04-15T09:15:18;2.15;;;1.80;;
64063;SDS011;50314;50.618;10.642;2023-04-15T09:17:44;2.28;;;2.08;;
64063;SDS011;50314;50.618;10.642;2023-04-15T09:20:12;2.00;;;1.70;;
64063;SDS011;50314;50.618;10.642;2023-04-15T09:22:39;2.97;;;2.10;;
64063;SDS011;50314;50.618;10.642;2023-04-15T09:25:27;2.10;;;2.00;;
64063;SDS011;50314;50.618;10.642;2023-04-15T09:27:57;3.40;;;3.17;;
64063;SDS011;50314;50.618;10.642;2023-04-15T09:30:24;1.88;;;1.77;;
64063;SDS011;50314;50.618;10.642;2023-04-15T09:32:52;2.80;;;1.83;;
64063;SDS011;50314;50.618;10.642;2023-04-15T09:35:18;2.13;;;2.03;;
64063;SDS011;50314;50.618;10.642;2023-04-15T09:37:46;2.97;;;2.78;;
64063;SDS011;50314;50.618;10.642;2023-04-15T09:40:12;1.90;;;1.80;;
64063;SDS011;50314;50.618;10.642;2023-04-15T09:42:53;2.90;;;2.63;;
64063;SDS011;50314;50.618;10.642;2023-04-15T09:45:20;1.80;;;1.70;;
64063;SDS011;50314;50.618;10.642;2023-04-15T09:47:46;3.00;;;2.63;;
64063;SDS011;50314;50.618;10.642;2023-04-15T09:50:11;4.30;;;1.90;;
64063;SDS011;50314;50.618;10.642;2023-04-15T09:55:07;2.88;;;1.50;;
64063;SDS011;50314;50.618;10.642;2023-04-15T09:57:36;2.45;;;2.25;;
64063;SDS011;50314;50.618;10.642;2023-04-15T10:00:03;3.22;;;1.60;;
64063;SDS011;50314;50.618;10.642;2023-04-15T10:02:35;2.38;;;2.00;;
64063;SDS011;50314;50.618;10.642;2023-04-15T10:05:01;2.00;;;1.90;;
64063;SDS011;50314;50.618;10.642;2023-04-15T10:07:27;1.80;;;1.65;;
64063;SDS011;50314;50.618;10.642;2023-04-15T10:09:52;2.08;;;1.98;;
64063;SDS011;50314;50.618;10.642;2023-04-15T10:12:19;1.75;;;1.65;;
64063;SDS011;50314;50.618;10.642;2023-04-15T10:14:47;1.83;;;1.73;;
64063;SDS011;50314;50.618;10.642;2023-04-15T10:17:17;1.67;;;1.58;;
64063;SDS011;50314;50.618;10.642;2023-04-15T10:19:46;1.70;;;1.60;;
64063;SDS011;50314;50.618;10.642;2023-04-15T10:22:13;1.90;;;1.80;;
64063;SDS011;50314;50.618;10.642;2023-04-15T10:24:39;1.90;;;1.73;;
64063;SDS011;50314;50.618;10.642;2023-04-15T10:27:04;1.52;;;1.42;;
64063;SDS011;50314;50.618;10.642;2023-04-15T10:29:31;1.83;;;1.48;;
64063;SDS011;50314;50.618;10.642;2023-04-15T10:31:57;1.70;;;1.60;;
64063;SDS011;50314;50.618;10.642;2023-04-15T10:34:24;1.63;;;1.52;;
64063;SDS011;50314;50.618;10.642;2023-04-15T10:36:50;1.95;;;1.83;;
64063;SDS011;50314;50.618;10.642;2023-04-15T10:42:08;1.55;;;1.45;;
64063;SDS011;50314;50.618;10.642;2023-04-15T10:44:34;2.20;;;2.05;;
64063;SDS011;50314;50.618;10.642;2023-04-15T10:47:16;1.63;;;1.52;;
64063;SDS011;50314;50.618;10.642;2023-04-15T10:49:56;2.20;;;2.10;;
64063;SDS011;50314;50.618;10.642;2023-04-15T10:52:25;1.75;;;1.65;;
64063;SDS011;50314;50.618;10.642;2023-04-15T10:57:43;1.80;;;1.70;;
64063;SDS011;50314;50.618;10.642;2023-04-15T11:00:10;1.65;;;1.55;;
64063;SDS011;50314;50.618;10.642;2023-04-15T11:05:16;1.48;;;1.38;;
64063;SDS011;50314;50.618;10.642;2023-04-15T11:12:44;1.67;;;1.58;;
64063;SDS011;50314;50.618;10.642;2023-04-15T11:17:58;1.50;;;1.40;;
64063;SDS011;50314;50.618;10.642;2023-04-15T11:20:33;1.80;;;1.50;;
64063;SDS011;50314;50.618;10.642;2023-04-15T11:23:00;1.50;;;1.40;;
64063;SDS011;50314;50.618;10.642;2023-04-15T11:25:26;2.17;;;2.05;;
64063;SDS011;50314;50.618;10.642;2023-04-15T11:27:53;1.27;;;1.20;;
64063;SDS011;50314;50.618;10.642;2023-04-15T11:30:22;1.42;;;1.33;;
64063;SDS011;50314;50.618;10.642;2023-04-15T11:32:53;1.92;;;1.38;;
64063;SDS011;50314;50.618;10.642;2023-04-15T11:35:22;1.70;;;1.60;;
64063;SDS011;50314;50.618;10.642;2023-04-15T11:37:48;2.13;;;2.00;;
64063;SDS011;50314;50.618;10.642;2023-04-15T11:40:14;1.48;;;1.35;;
64063;SDS011;50314;50.618;10.642;2023-04-15T11:42:41;2.28;;;2.08;;
64063;SDS011;50314;50.618;10.642;2023-04-15T11:45:09;1.70;;;1.60;;
64063;SDS011;50314;50.618;10.642;2023-04-15T11:50:20;1.70;;;1.60;;
64063;SDS011;50314;50.618;10.642;2023-04-15T11:52:56;2.40;;;2.20;;
64063;SDS011;50314;50.618;10.642;2023-04-15T11:55:23;2.05;;;1.85;;
64063;SDS011;50314;50.618;10.642;2023-04-15T11:58:04;1.75;;;1.65;;
64063;SDS011;50314;50.618;10.642;2023-04-15T12:00:40;1.50;;;1.40;;
64063;SDS011;50314;50.618;10.642;2023-04-15T12:03:14;2.13;;;1.92;;
64063;SDS011;50314;50.618;10.642;2023-04-15T12:08:59;1.88;;;1.73;;
64063;SDS011;50314;50.618;10.642;2023-04-15T12:16:42;1.73;;;1.63;;
64063;SDS011;50314;50.618;10.642;2023-04-15T12:19:22;1.50;;;1.40;;
64063;SDS011;50314;50.618;10.642;2023-04-15T12:21:49;1.60;;;1.52;;
64063;SDS011;50314;50.618;10.642;2023-04-15T12:24:14;1.77;;;1.67;;
64063;SDS011;50314;50.618;10.642;2023-04-15T12:26:46;1.90;;;1.63;;
64063;SDS011;50314;50.618;10.642;2023-04-15T12:29:13;2.30;;;2.10;;
64063;SDS011;50314;50.618;10.642;2023-04-15T12:31:56;1.73;;;1.63;;
64063;SDS011;50314;50.618;10.642;2023-04-15T12:34:28;1.33;;;1.23;;
64063;SDS011;50314;50.618;10.642;2023-04-15T12:36:55;2.33;;;1.50;;
64063;SDS011;50314;50.618;10.642;2023-04-15T12:39:22;1.85;;;1.75;;
64063;SDS011;50314;50.618;10.642;2023-04-15T12:41:50;1.65;;;1.55;;
64063;SDS011;50314;50.618;10.642;2023-04-15T12:44:16;1.48;;;1.38;;
64063;SDS011;50314;50.618;10.642;2023-04-15T12:46:42;2.10;;;2.00;;
64063;SDS011;50314;50.618;10.642;2023-04-15T12:49:08;1.33;;;1.23;;
64063;SDS011;50314;50.618;10.642;2023-04-15T12:51:33;1.70;;;1.60;;
64063;SDS011;50314;50.618;10.642;2023-04-15T12:53:59;1.63;;;1.52;;
64063;SDS011;50314;50.618;10.642;2023-04-15T12:56:24;2.60;;;2.40;;
64063;SDS011;50314;50.618;10.642;2023-04-15T12:58:50;1.77;;;1.67;;
64063;SDS011;50314;50.618;10.642;2023-04-15T13:01:16;1.90;;;1.80;;
64063;SDS011;50314;50.618;10.642;2023-04-15T13:03:42;1.58;;;1.48;;
64063;SDS011;50314;50.618;10.642;2023-04-15T13:06:08;2.97;;;1.52;;
64063;SDS011;50314;50.618;10.642;2023-04-15T13:08:33;2.75;;;1.65;;
64063;SDS011;50314;50.618;10.642;2023-04-15T13:10:59;1.88;;;1.77;;
64063;SDS011;50314;50.618;10.642;2023-04-15T13:13:25;1.80;;;1.70;;
64063;SDS011;50314;50.618;10.642;2023-04-15T13:15:51;1.83;;;1.73;;
64063;SDS011;50314;50.618;10.642;2023-04-15T13:18:16;2.17;;;1.83;;
64063;SDS011;50314;50.618;10.642;2023-04-15T13:20:42;2.20;;;2.10;;
64063;SDS011;50314;50.618;10.642;2023-04-15T13:23:07;2.03;;;1.90;;
64063;SDS011;50314;50.618;10.642;2023-04-15T13:25:33;1.42;;;1.33;;
64063;SDS011;50314;50.618;10.642;2023-04-15T13:27:58;2.08;;;1.83;;
64063;SDS011;50314;50.618;10.642;2023-04-15T13:30:25;1.88;;;1.67;;
64063;SDS011;50314;50.618;10.642;2023-04-15T13:32:51;2.00;;;1.90;;
64063;SDS011;50314;50.618;10.642;2023-04-15T13:35:18;2.22;;;1.35;;
64063;SDS011;50314;50.618;10.642;2023-04-15T13:37:44;1.65;;;1.55;;
64063;SDS011;50314;50.618;10.642;2023-04-15T13:40:11;1.25;;;1.13;;
64063;SDS011;50314;50.618;10.642;2023-04-15T13:42:36;2.03;;;1.50;;
64063;SDS011;50314;50.618;10.642;2023-04-15T13:45:02;2.08;;;1.73;;
64063;SDS011;50314;50.618;10.642;2023-04-15T13:47:27;1.48;;;1.38;;
64063;SDS011;50314;50.618;10.642;2023-04-15T13:49:53;1.95;;;1.85;;
64063;SDS011;50314;50.618;10.642;2023-04-15T13:52:20;1.88;;;1.75;;
64063;SDS011;50314;50.618;10.642;2023-04-15T13:54:46;1.95;;;1.70;;
64063;SDS011;50314;50.618;10.642;2023-04-15T13:57:12;1.13;;;1.13;;
64063;SDS011;50314;50.618;10.642;2023-04-15T13:59:37;1.70;;;1.60;;
64063;SDS011;50314;50.618;10.642;2023-04-15T14:02:03;1.65;;;1.55;;
64063;SDS011;50314;50.618;10.642;2023-04-15T14:04:29;1.23;;;1.23;;
64063;SDS011;50314;50.618;10.642;2023-04-15T14:06:55;1.63;;;1.50;;
64063;SDS011;50314;50.618;10.642;2023-04-15T14:09:21;1.60;;;1.50;;
64063;SDS011;50314;50.618;10.642;2023-04-15T14:11:48;1.58;;;1.50;;
64063;SDS011;50314;50.618;10.642;2023-04-15T14:14:14;1.50;;;1.40;;
64063;SDS011;50314;50.618;10.642;2023-04-15T14:16:39;1.45;;;1.30;;
64063;SDS011;50314;50.618;10.642;2023-04-15T14:19:05;1.80;;;1.70;;
64063;SDS011;50314;50.618;10.642;2023-04-15T14:21:30;1.42;;;1.35;;
64063;SDS011;50314;50.618;10.642;2023-04-15T14:23:56;1.88;;;1.77;;
64063;SDS011;50314;50.618;10.642;2023-04-15T14:26:22;1.20;;;1.20;;
64063;SDS011;50314;50.618;10.642;2023-04-15T14:28:48;1.52;;;1.00;;
64063;SDS011;50314;50.618;10.642;2023-04-15T14:31:13;1.23;;;1.13;;
64063;SDS011;50314;50.618;10.642;2023-04-15T14:33:39;1.33;;;1.23;;
64063;SDS011;50314;50.618;10.642;2023-04-15T14:36:05;1.33;;;1.23;;
64063;SDS011;50314;50.618;10.642;2023-04-15T14:38:34;1.25;;;1.15;;
64063;SDS011;50314;50.618;10.642;2023-04-15T14:41:06;1.20;;;1.00;;
64063;SDS011;50314;50.618;10.642;2023-04-15T14:43:33;1.67;;;1.10;;
64063;SDS011;50314;50.618;10.642;2023-04-15T14:45:59;2.03;;;1.13;;
64063;SDS011;50314;50.618;10.642;2023-04-15T14:48:24;1.23;;;1.13;;
64063;SDS011;50314;50.618;10.642;2023-04-15T14:50:50;0.80;;;0.80;;
64063;SDS011;50314;50.618;10.642;2023-04-15T14:53:16;1.10;;;1.02;;
64063;SDS011;50314;50.618;10.642;2023-04-15T14:55:41;1.20;;;1.13;;
64063;SDS011;50314;50.618;10.642;2023-04-15T14:58:07;0.95;;;0.93;;
64063;SDS011;50314;50.618;10.642;2023-04-15T15:00:33;1.45;;;1.00;;
64063;SDS011;50314;50.618;10.642;2023-04-15T15:02:59;1.30;;;1.10;;